sensor_id;sensor_type;location;lat;lon;timestamp;P1;durP1;ratioP1;P2;durP2;ratioP2
81896;SDS011;71360;43.506;1.500;2024-03-02T00:00:19;9.20;;;4.28;;
81896;SDS011;71360;43.506;1.500;2024-03-02T00:02:47;10.53;;;5.03;;
81896;SDS011;71360;43.506;1.500;2024-03-02T00:05:20;13.98;;;5.68;;
81896;SDS011;71360;43.506;1.500;2024-03-02T00:07:54;14.90;;;7.05;;
81896;SDS011;71360;43.506;1.500;2024-03-02T00:10:22;12.15;;;6.75;;
81896;SDS011;71360;43.506;1.500;2024-03-02T00:12:53;10.57;;;6.13;;
81896;SDS011;71360;43.506;1.500;2024-03-02T00:17:57;10.52;;;6.00;;
81896;SDS011;71360;43.506;1.500;2024-03-02T00:20:24;11.05;;;5.93;;
81896;SDS011;71360;43.506;1.500;2024-03-02T00:22:55;14.38;;;6.18;;
81896;SDS011;71360;43.506;1.500;2024-03-02T00:25:32;12.32;;;5.90;;
81896;SDS011;71360;43.506;1.500;2024-03-02T00:28:19;10.13;;;5.13;;
81896;SDS011;71360;43.506;1.500;2024-03-02T00:33:34;11.93;;;5.00;;
81896;SDS011;71360;43.506;1.500;2024-03-02T00:36:02;11.77;;;5.22;;
81896;SDS011;71360;43.506;1.500;2024-03-02T00:38:29;10.57;;;5.50;;
81896;SDS011;71360;43.506;1.500;2024-03-02T00:40:56;10.47;;;5.10;;
81896;SDS011;71360;43.506;1.500;2024-03-02T00:45:49;9.43;;;5.20;;
81896;SDS011;71360;43.506;1.500;2024-03-02T00:48:15;9.93;;;4.93;;
81896;SDS011;71360;43.506;1.500;2024-03-02T00:50:42;10.77;;;5.05;;
81896;SDS011;71360;43.506;1.500;2024-03-02T00:53:09;10.50;;;5.13;;
81896;SDS011;71360;43.506;1.500;2024-03-02T00:55:37;9.80;;;5.15;;
81896;SDS011;71360;43.506;1.500;2024-03-02T00:58:03;11.00;;;5.00;;
81896;SDS011;71360;43.506;1.500;2024-03-02T01:00:28;9.70;;;4.93;;
81896;SDS011;71360;43.506;1.500;2024-03-02T01:02:54;10.57;;;5.00;;
81896;SDS011;71360;43.506;1.500;2024-03-02T01:05:19;11.45;;;5.10;;
81896;SDS011;71360;43.506;1.500;2024-03-02T01:07:45;11.03;;;5.10;;
81896;SDS011;71360;43.506;1.500;2024-03-02T01:10:11;10.00;;;5.10;;
81896;SDS011;71360;43.506;1.500;2024-03-02T01:12:36;11.55;;;4.78;;
81896;SDS011;71360;43.506;1.500;2024-03-02T01:15:02;10.40;;;4.90;;
81896;SDS011;71360;43.506;1.500;2024-03-02T01:17:31;10.05;;;4.70;;
81896;SDS011;71360;43.506;1.500;2024-03-02T01:19:56;11.23;;;5.07;;
81896;SDS011;71360;43.506;1.500;2024-03-02T01:22:22;11.18;;;5.38;;
81896;SDS011;71360;43.506;1.500;2024-03-02T01:24:50;19.65;;;8.65;;
81896;SDS011;71360;43.506;1.500;2024-03-02T01:27:16;19.50;;;8.63;;
81896;SDS011;71360;43.506;1.500;2024-03-02T01:29:41;19.57;;;9.20;;
81896;SDS011;71360;43.506;1.500;2024-03-02T01:32:07;18.27;;;8.60;;
81896;SDS011;71360;43.506;1.500;2024-03-02T01:34:32;16.47;;;7.63;;
81896;SDS011;71360;43.506;1.500;2024-03-02T01:36:58;13.67;;;6.90;;
81896;SDS011;71360;43.506;1.500;2024-03-02T01:39:23;16.52;;;7.03;;
81896;SDS011;71360;43.506;1.500;2024-03-02T01:41:49;13.33;;;5.97;;
81896;SDS011;71360;43.506;1.500;2024-03-02T01:44:14;12.43;;;5.80;;
81896;SDS011;71360;43.506;1.500;2024-03-02T01:46:40;10.05;;;5.18;;
81896;SDS011;71360;43.506;1.500;2024-03-02T01:49:05;10.13;;;4.90;;
81896;SDS011;71360;43.506;1.500;2024-03-02T01:51:31;10.52;;;4.95;;
81896;SDS011;71360;43.506;1.500;2024-03-02T01:53:57;9.57;;;4.57;;
81896;SDS011;71360;43.506;1.500;2024-03-02T01:56:22;9.80;;;4.70;;
81896;SDS011;71360;43.506;1.500;2024-03-02T01:58:49;9.13;;;4.67;;
81896;SDS011;71360;43.506;1.500;2024-03-02T02:01:14;17.50;;;4.85;;
81896;SDS011;71360;43.506;1.500;2024-03-02T02:03:41;9.05;;;4.75;;
81896;SDS011;71360;43.506;1.500;2024-03-02T02:06:08;11.07;;;4.77;;
81896;SDS011;71360;43.506;1.500;2024-03-02T02:08:36;8.80;;;3.80;;
81896;SDS011;71360;43.506;1.500;2024-03-02T02:11:02;7.88;;;3.50;;
81896;SDS011;71360;43.506;1.500;2024-03-02T02:13:28;7.78;;;3.55;;
81896;SDS011;71360;43.506;1.500;2024-03-02T02:15:53;10.30;;;3.70;;
81896;SDS011;71360;43.506;1.500;2024-03-02T02:18:19;10.30;;;3.87;;
81896;SDS011;71360;43.506;1.500;2024-03-02T02:20:44;9.88;;;3.60;;
81896;SDS011;71360;43.506;1.500;2024-03-02T02:23:10;8.50;;;3.50;;
81896;SDS011;71360;43.506;1.500;2024-03-02T02:25:38;7.53;;;3.20;;
81896;SDS011;71360;43.506;1.500;2024-03-02T02:28:04;7.23;;;3.20;;
81896;SDS011;71360;43.506;1.500;2024-03-02T02:30:30;10.47;;;3.13;;
81896;SDS011;71360;43.506;1.500;2024-03-02T02:32:57;12.23;;;3.33;;
81896;SDS011;71360;43.506;1.500;2024-03-02T02:35:23;8.27;;;3.50;;
81896;SDS011;71360;43.506;1.500;2024-03-02T02:37:54;7.40;;;3.33;;
81896;SDS011;71360;43.506;1.500;2024-03-02T02:40:21;8.50;;;3.03;;
81896;SDS011;71360;43.506;1.500;2024-03-02T02:42:46;7.93;;;3.07;;
81896;SDS011;71360;43.506;1.500;2024-03-02T02:45:12;8.38;;;3.10;;
81896;SDS011;71360;43.506;1.500;2024-03-02T02:47:39;9.57;;;3.25;;
81896;SDS011;71360;43.506;1.500;2024-03-02T02:50:10;8.40;;;2.97;;
81896;SDS011;71360;43.506;1.500;2024-03-02T02:52:37;7.43;;;3.20;;
81896;SDS011;71360;43.506;1.500;2024-03-02T02:55:05;7.65;;;3.17;;
81896;SDS011;71360;43.506;1.500;2024-03-02T02:57:36;9.77;;;3.65;;
81896;SDS011;71360;43.506;1.500;2024-03-02T03:00:06;9.90;;;3.25;;
81896;SDS011;71360;43.506;1.500;2024-03-02T03:02:39;7.67;;;3.30;;
81896;SDS011;71360;43.506;1.500;2024-03-02T03:05:06;9.07;;;3.45;;
81896;SDS011;71360;43.506;1.500;2024-03-02T03:07:33;9.68;;;3.40;;
81896;SDS011;71360;43.506;1.500;2024-03-02T03:10:02;8.13;;;3.33;;
81896;SDS011;71360;43.506;1.500;2024-03-02T03:12:29;7.68;;;3.33;;
81896;SDS011;71360;43.506;1.500;2024-03-02T03:14:56;7.47;;;2.90;;
81896;SDS011;71360;43.506;1.500;2024-03-02T03:17:22;7.07;;;3.03;;
81896;SDS011;71360;43.506;1.500;2024-03-02T03:19:48;7.30;;;2.72;;
81896;SDS011;71360;43.506;1.500;2024-03-02T03:22:14;6.90;;;2.63;;
81896;SDS011;71360;43.506;1.500;2024-03-02T03:24:39;6.33;;;2.80;;
81896;SDS011;71360;43.506;1.500;2024-03-02T03:27:05;6.87;;;3.10;;
81896;SDS011;71360;43.506;1.500;2024-03-02T03:29:30;7.15;;;3.00;;
81896;SDS011;71360;43.506;1.500;2024-03-02T03:31:56;9.97;;;2.73;;
81896;SDS011;71360;43.506;1.500;2024-03-02T03:34:21;6.17;;;2.80;;
81896;SDS011;71360;43.506;1.500;2024-03-02T03:36:47;6.05;;;2.63;;
81896;SDS011;71360;43.506;1.500;2024-03-02T03:39:12;5.13;;;2.33;;
81896;SDS011;71360;43.506;1.500;2024-03-02T03:41:38;8.83;;;2.80;;
81896;SDS011;71360;43.506;1.500;2024-03-02T03:44:05;7.63;;;2.88;;
81896;SDS011;71360;43.506;1.500;2024-03-02T03:46:30;7.17;;;2.80;;
81896;SDS011;71360;43.506;1.500;2024-03-02T03:48:56;7.25;;;3.03;;
81896;SDS011;71360;43.506;1.500;2024-03-02T03:51:21;8.03;;;3.03;;
81896;SDS011;71360;43.506;1.500;2024-03-02T03:53:48;8.65;;;3.10;;
81896;SDS011;71360;43.506;1.500;2024-03-02T03:56:13;8.50;;;3.13;;
81896;SDS011;71360;43.506;1.500;2024-03-02T03:58:39;8.02;;;3.20;;
81896;SDS011;71360;43.506;1.500;2024-03-02T04:01:04;9.03;;;3.23;;
81896;SDS011;71360;43.506;1.500;2024-03-02T04:03:30;9.10;;;3.23;;
81896;SDS011;71360;43.506;1.500;2024-03-02T04:05:56;8.20;;;3.08;;
81896;SDS011;71360;43.506;1.500;2024-03-02T04:08:21;6.47;;;3.13;;
81896;SDS011;71360;43.506;1.500;2024-03-02T04:10:47;7.13;;;3.40;;
81896;SDS011;71360;43.506;1.500;2024-03-02T04:13:12;9.63;;;3.33;;
81896;SDS011;71360;43.506;1.500;2024-03-02T04:15:38;8.47;;;3.30;;
81896;SDS011;71360;43.506;1.500;2024-03-02T04:18:03;7.72;;;2.75;;
81896;SDS011;71360;43.506;1.500;2024-03-02T04:20:29;9.53;;;3.20;;
81896;SDS011;71360;43.506;1.500;2024-03-02T04:22:55;8.85;;;3.20;;
81896;SDS011;71360;43.506;1.500;2024-03-02T04:25:21;6.43;;;3.20;;
81896;SDS011;71360;43.506;1.500;2024-03-02T04:27:46;7.30;;;2.85;;
81896;SDS011;71360;43.506;1.500;2024-03-02T04:30:12;7.93;;;2.90;;
81896;SDS011;71360;43.506;1.500;2024-03-02T04:32:37;6.65;;;2.75;;
81896;SDS011;71360;43.506;1.500;2024-03-02T04:35:04;7.78;;;2.70;;
81896;SDS011;71360;43.506;1.500;2024-03-02T04:37:31;6.87;;;2.47;;
81896;SDS011;71360;43.506;1.500;2024-03-02T04:39:59;7.18;;;2.45;;
81896;SDS011;71360;43.506;1.500;2024-03-02T04:42:24;5.43;;;2.30;;
81896;SDS011;71360;43.506;1.500;2024-03-02T04:44:50;9.53;;;2.23;;
81896;SDS011;71360;43.506;1.500;2024-03-02T04:47:16;6.30;;;2.13;;
81896;SDS011;71360;43.506;1.500;2024-03-02T04:49:41;8.53;;;2.47;;
81896;SDS011;71360;43.506;1.500;2024-03-02T04:52:08;6.03;;;2.43;;
81896;SDS011;71360;43.506;1.500;2024-03-02T04:54:34;7.63;;;2.53;;
81896;SDS011;71360;43.506;1.500;2024-03-02T04:57:19;7.85;;;2.30;;
81896;SDS011;71360;43.506;1.500;2024-03-02T04:59:45;5.53;;;2.40;;
81896;SDS011;71360;43.506;1.500;2024-03-02T05:02:10;6.30;;;2.73;;
81896;SDS011;71360;43.506;1.500;2024-03-02T05:04:35;7.37;;;2.70;;
81896;SDS011;71360;43.506;1.500;2024-03-02T05:07:01;5.63;;;2.50;;
81896;SDS011;71360;43.506;1.500;2024-03-02T05:09:26;7.20;;;2.70;;
81896;SDS011;71360;43.506;1.500;2024-03-02T05:11:52;8.93;;;2.80;;
81896;SDS011;71360;43.506;1.500;2024-03-02T05:14:36;7.67;;;2.80;;
81896;SDS011;71360;43.506;1.500;2024-03-02T05:17:02;7.20;;;2.50;;
81896;SDS011;71360;43.506;1.500;2024-03-02T05:19:28;7.05;;;2.83;;
81896;SDS011;71360;43.506;1.500;2024-03-02T05:21:53;8.77;;;2.70;;
81896;SDS011;71360;43.506;1.500;2024-03-02T05:24:19;8.30;;;2.50;;
81896;SDS011;71360;43.506;1.500;2024-03-02T05:26:45;6.40;;;2.47;;
81896;SDS011;71360;43.506;1.500;2024-03-02T05:29:10;8.57;;;2.80;;
81896;SDS011;71360;43.506;1.500;2024-03-02T05:31:36;7.77;;;2.97;;
81896;SDS011;71360;43.506;1.500;2024-03-02T05:34:01;7.65;;;2.90;;
81896;SDS011;71360;43.506;1.500;2024-03-02T05:36:27;8.27;;;2.88;;
81896;SDS011;71360;43.506;1.500;2024-03-02T05:38:53;9.10;;;3.10;;
81896;SDS011;71360;43.506;1.500;2024-03-02T05:41:18;9.43;;;3.50;;
81896;SDS011;71360;43.506;1.500;2024-03-02T05:43:44;8.88;;;3.40;;
81896;SDS011;71360;43.506;1.500;2024-03-02T05:46:09;8.40;;;3.23;;
81896;SDS011;71360;43.506;1.500;2024-03-02T05:48:35;8.57;;;3.80;;
81896;SDS011;71360;43.506;1.500;2024-03-02T05:51:00;10.63;;;3.70;;
81896;SDS011;71360;43.506;1.500;2024-03-02T05:53:26;8.90;;;3.60;;
81896;SDS011;71360;43.506;1.500;2024-03-02T05:55:51;8.00;;;3.40;;
81896;SDS011;71360;43.506;1.500;2024-03-02T05:58:20;9.43;;;3.60;;
81896;SDS011;71360;43.506;1.500;2024-03-02T06:00:57;9.40;;;3.72;;
81896;SDS011;71360;43.506;1.500;2024-03-02T06:03:23;9.07;;;3.80;;
81896;SDS011;71360;43.506;1.500;2024-03-02T06:05:48;8.02;;;3.00;;
81896;SDS011;71360;43.506;1.500;2024-03-02T06:08:14;8.70;;;3.37;;
81896;SDS011;71360;43.506;1.500;2024-03-02T06:10:40;6.88;;;2.90;;
81896;SDS011;71360;43.506;1.500;2024-03-02T06:13:05;6.97;;;3.13;;
81896;SDS011;71360;43.506;1.500;2024-03-02T06:15:31;6.10;;;2.97;;
81896;SDS011;71360;43.506;1.500;2024-03-02T06:17:56;8.75;;;3.25;;
81896;SDS011;71360;43.506;1.500;2024-03-02T06:20:22;6.27;;;3.10;;
81896;SDS011;71360;43.506;1.500;2024-03-02T06:22:47;10.03;;;3.50;;
81896;SDS011;71360;43.506;1.500;2024-03-02T06:25:13;8.15;;;3.50;;
81896;SDS011;71360;43.506;1.500;2024-03-02T06:27:38;7.20;;;3.43;;
81896;SDS011;71360;43.506;1.500;2024-03-02T06:30:04;9.53;;;3.50;;
81896;SDS011;71360;43.506;1.500;2024-03-02T06:32:30;8.63;;;3.30;;
81896;SDS011;71360;43.506;1.500;2024-03-02T06:34:57;9.90;;;3.72;;
81896;SDS011;71360;43.506;1.500;2024-03-02T06:37:22;11.60;;;3.93;;
81896;SDS011;71360;43.506;1.500;2024-03-02T06:39:48;9.35;;;4.22;;
81896;SDS011;71360;43.506;1.500;2024-03-02T06:42:13;10.20;;;4.20;;
81896;SDS011;71360;43.506;1.500;2024-03-02T06:44:39;9.90;;;4.37;;
81896;SDS011;71360;43.506;1.500;2024-03-02T06:47:04;8.03;;;3.60;;
81896;SDS011;71360;43.506;1.500;2024-03-02T06:49:30;9.45;;;3.50;;
81896;SDS011;71360;43.506;1.500;2024-03-02T06:51:55;8.03;;;3.57;;
81896;SDS011;71360;43.506;1.500;2024-03-02T06:54:21;11.52;;;3.72;;
81896;SDS011;71360;43.506;1.500;2024-03-02T06:56:47;10.93;;;4.53;;
81896;SDS011;71360;43.506;1.500;2024-03-02T06:59:12;10.93;;;4.65;;
81896;SDS011;71360;43.506;1.500;2024-03-02T07:01:38;14.97;;;4.63;;
81896;SDS011;71360;43.506;1.500;2024-03-02T07:04:03;11.37;;;5.13;;
81896;SDS011;71360;43.506;1.500;2024-03-02T07:06:31;9.73;;;4.50;;
81896;SDS011;71360;43.506;1.500;2024-03-02T07:08:56;8.23;;;3.77;;
81896;SDS011;71360;43.506;1.500;2024-03-02T07:11:22;9.20;;;3.80;;
81896;SDS011;71360;43.506;1.500;2024-03-02T07:13:47;6.73;;;3.50;;
81896;SDS011;71360;43.506;1.500;2024-03-02T07:16:14;8.53;;;3.40;;
81896;SDS011;71360;43.506;1.500;2024-03-02T07:18:46;7.47;;;3.15;;
81896;SDS011;71360;43.506;1.500;2024-03-02T07:21:16;8.35;;;3.22;;
81896;SDS011;71360;43.506;1.500;2024-03-02T07:23:42;8.60;;;3.03;;
81896;SDS011;71360;43.506;1.500;2024-03-02T07:26:07;9.25;;;3.50;;
81896;SDS011;71360;43.506;1.500;2024-03-02T07:28:33;10.30;;;3.40;;
81896;SDS011;71360;43.506;1.500;2024-03-02T07:33:29;7.27;;;3.00;;
81896;SDS011;71360;43.506;1.500;2024-03-02T07:35:56;8.30;;;3.38;;
81896;SDS011;71360;43.506;1.500;2024-03-02T07:38:28;8.63;;;3.20;;
81896;SDS011;71360;43.506;1.500;2024-03-02T07:40:57;9.13;;;3.40;;
81896;SDS011;71360;43.506;1.500;2024-03-02T07:43:24;7.72;;;3.20;;
81896;SDS011;71360;43.506;1.500;2024-03-02T07:45:52;11.77;;;3.47;;
81896;SDS011;71360;43.506;1.500;2024-03-02T07:48:18;8.10;;;3.30;;
81896;SDS011;71360;43.506;1.500;2024-03-02T07:50:43;8.73;;;3.30;;
81896;SDS011;71360;43.506;1.500;2024-03-02T07:53:09;7.32;;;3.35;;
81896;SDS011;71360;43.506;1.500;2024-03-02T07:55:35;5.35;;;2.63;;
81896;SDS011;71360;43.506;1.500;2024-03-02T07:58:01;8.47;;;3.00;;
81896;SDS011;71360;43.506;1.500;2024-03-02T08:00:26;7.57;;;3.00;;
81896;SDS011;71360;43.506;1.500;2024-03-02T08:02:53;7.30;;;2.90;;
81896;SDS011;71360;43.506;1.500;2024-03-02T08:05:19;7.95;;;3.35;;
81896;SDS011;71360;43.506;1.500;2024-03-02T08:07:45;8.82;;;3.58;;
81896;SDS011;71360;43.506;1.500;2024-03-02T08:10:11;7.72;;;2.97;;
81896;SDS011;71360;43.506;1.500;2024-03-02T08:12:37;6.00;;;2.73;;
81896;SDS011;71360;43.506;1.500;2024-03-02T08:15:03;8.98;;;4.00;;
81896;SDS011;71360;43.506;1.500;2024-03-02T08:17:29;10.68;;;3.88;;
81896;SDS011;71360;43.506;1.500;2024-03-02T08:19:55;10.00;;;3.30;;
81896;SDS011;71360;43.506;1.500;2024-03-02T08:22:21;9.63;;;3.45;;
81896;SDS011;71360;43.506;1.500;2024-03-02T08:24:47;10.30;;;3.80;;
81896;SDS011;71360;43.506;1.500;2024-03-02T08:27:16;9.52;;;3.50;;
81896;SDS011;71360;43.506;1.500;2024-03-02T08:29:42;10.17;;;3.53;;
81896;SDS011;71360;43.506;1.500;2024-03-02T08:32:09;8.25;;;3.20;;
81896;SDS011;71360;43.506;1.500;2024-03-02T08:34:34;10.25;;;3.70;;
81896;SDS011;71360;43.506;1.500;2024-03-02T08:37:01;10.20;;;3.50;;
81896;SDS011;71360;43.506;1.500;2024-03-02T08:39:27;7.85;;;3.00;;
81896;SDS011;71360;43.506;1.500;2024-03-02T08:41:53;7.20;;;2.77;;
81896;SDS011;71360;43.506;1.500;2024-03-02T08:44:19;8.13;;;3.50;;
81896;SDS011;71360;43.506;1.500;2024-03-02T08:46:45;9.15;;;3.20;;
81896;SDS011;71360;43.506;1.500;2024-03-02T08:49:11;8.27;;;2.97;;
81896;SDS011;71360;43.506;1.500;2024-03-02T08:51:37;8.52;;;3.20;;
81896;SDS011;71360;43.506;1.500;2024-03-02T08:54:03;8.37;;;3.07;;
81896;SDS011;71360;43.506;1.500;2024-03-02T08:56:33;8.23;;;3.20;;
81896;SDS011;71360;43.506;1.500;2024-03-02T08:59:00;10.27;;;3.20;;
81896;SDS011;71360;43.506;1.500;2024-03-02T09:01:25;10.30;;;3.30;;
81896;SDS011;71360;43.506;1.500;2024-03-02T09:03:51;6.50;;;3.15;;
81896;SDS011;71360;43.506;1.500;2024-03-02T09:06:17;8.37;;;3.10;;
81896;SDS011;71360;43.506;1.500;2024-03-02T09:08:43;12.25;;;3.50;;
81896;SDS011;71360;43.506;1.500;2024-03-02T09:11:09;10.90;;;3.50;;
81896;SDS011;71360;43.506;1.500;2024-03-02T09:13:35;10.80;;;4.32;;
81896;SDS011;71360;43.506;1.500;2024-03-02T09:16:02;8.23;;;3.53;;
81896;SDS011;71360;43.506;1.500;2024-03-02T09:18:27;9.55;;;3.58;;
81896;SDS011;71360;43.506;1.500;2024-03-02T09:20:53;7.10;;;3.40;;
81896;SDS011;71360;43.506;1.500;2024-03-02T09:23:19;8.33;;;3.50;;
81896;SDS011;71360;43.506;1.500;2024-03-02T09:25:44;11.52;;;4.10;;
81896;SDS011;71360;43.506;1.500;2024-03-02T09:28:10;11.47;;;3.60;;
81896;SDS011;71360;43.506;1.500;2024-03-02T09:30:36;12.63;;;3.70;;
81896;SDS011;71360;43.506;1.500;2024-03-02T09:33:01;9.70;;;3.67;;
81896;SDS011;71360;43.506;1.500;2024-03-02T09:35:27;9.27;;;3.50;;
81896;SDS011;71360;43.506;1.500;2024-03-02T09:37:52;9.40;;;3.40;;
81896;SDS011;71360;43.506;1.500;2024-03-02T09:40:18;8.23;;;3.40;;
81896;SDS011;71360;43.506;1.500;2024-03-02T09:42:47;9.90;;;3.40;;
81896;SDS011;71360;43.506;1.500;2024-03-02T09:45:17;10.18;;;3.75;;
81896;SDS011;71360;43.506;1.500;2024-03-02T09:47:49;9.25;;;3.50;;
81896;SDS011;71360;43.506;1.500;2024-03-02T09:50:15;12.63;;;3.67;;
81896;SDS011;71360;43.506;1.500;2024-03-02T09:52:47;12.32;;;3.53;;
81896;SDS011;71360;43.506;1.500;2024-03-02T09:55:13;9.73;;;3.50;;
81896;SDS011;71360;43.506;1.500;2024-03-02T09:57:41;11.00;;;4.00;;
81896;SDS011;71360;43.506;1.500;2024-03-02T10:00:07;16.00;;;4.20;;
81896;SDS011;71360;43.506;1.500;2024-03-02T10:02:33;13.23;;;3.78;;
81896;SDS011;71360;43.506;1.500;2024-03-02T10:04:59;9.68;;;3.95;;
81896;SDS011;71360;43.506;1.500;2024-03-02T10:07:24;13.07;;;3.93;;
81896;SDS011;71360;43.506;1.500;2024-03-02T10:09:50;13.00;;;3.63;;
81896;SDS011;71360;43.506;1.500;2024-03-02T10:12:17;13.98;;;3.92;;
81896;SDS011;71360;43.506;1.500;2024-03-02T10:14:43;11.18;;;3.72;;
81896;SDS011;71360;43.506;1.500;2024-03-02T10:17:13;11.18;;;3.40;;
81896;SDS011;71360;43.506;1.500;2024-03-02T10:19:40;10.27;;;3.97;;
81896;SDS011;71360;43.506;1.500;2024-03-02T10:22:09;9.13;;;3.80;;
81896;SDS011;71360;43.506;1.500;2024-03-02T10:27:50;11.25;;;3.95;;
81896;SDS011;71360;43.506;1.500;2024-03-02T10:30:15;13.20;;;3.80;;
81896;SDS011;71360;43.506;1.500;2024-03-02T10:32:41;10.13;;;3.27;;
81896;SDS011;71360;43.506;1.500;2024-03-02T10:35:06;12.17;;;3.73;;
81896;SDS011;71360;43.506;1.500;2024-03-02T10:37:32;12.03;;;3.90;;
81896;SDS011;71360;43.506;1.500;2024-03-02T10:39:57;11.88;;;3.90;;
81896;SDS011;71360;43.506;1.500;2024-03-02T10:42:30;13.30;;;3.95;;
81896;SDS011;71360;43.506;1.500;2024-03-02T10:44:55;13.07;;;4.70;;
81896;SDS011;71360;43.506;1.500;2024-03-02T10:47:21;11.63;;;3.95;;
81896;SDS011;71360;43.506;1.500;2024-03-02T10:49:48;11.93;;;4.13;;
81896;SDS011;71360;43.506;1.500;2024-03-02T10:52:16;18.08;;;5.40;;
81896;SDS011;71360;43.506;1.500;2024-03-02T10:54:42;12.55;;;5.47;;
81896;SDS011;71360;43.506;1.500;2024-03-02T10:57:09;16.35;;;7.50;;
81896;SDS011;71360;43.506;1.500;2024-03-02T10:59:36;18.93;;;8.57;;
81896;SDS011;71360;43.506;1.500;2024-03-02T11:02:07;14.73;;;5.50;;
81896;SDS011;71360;43.506;1.500;2024-03-02T11:04:37;13.43;;;6.03;;
81896;SDS011;71360;43.506;1.500;2024-03-02T11:07:09;18.08;;;9.20;;
81896;SDS011;71360;43.506;1.500;2024-03-02T11:09:50;19.25;;;10.90;;
81896;SDS011;71360;43.506;1.500;2024-03-02T11:12:23;15.80;;;7.90;;
81896;SDS011;71360;43.506;1.500;2024-03-02T11:14:55;11.35;;;4.97;;
81896;SDS011;71360;43.506;1.500;2024-03-02T11:17:23;12.00;;;5.25;;
81896;SDS011;71360;43.506;1.500;2024-03-02T11:19:50;10.82;;;4.03;;
81896;SDS011;71360;43.506;1.500;2024-03-02T11:22:16;8.77;;;3.75;;
81896;SDS011;71360;43.506;1.500;2024-03-02T11:24:49;11.30;;;3.63;;
81896;SDS011;71360;43.506;1.500;2024-03-02T11:27:20;12.07;;;3.90;;
81896;SDS011;71360;43.506;1.500;2024-03-02T11:30:16;12.13;;;3.42;;
81896;SDS011;71360;43.506;1.500;2024-03-02T11:33:07;14.25;;;4.03;;
81896;SDS011;71360;43.506;1.500;2024-03-02T11:35:36;11.52;;;5.25;;
81896;SDS011;71360;43.506;1.500;2024-03-02T11:38:07;13.10;;;3.60;;
81896;SDS011;71360;43.506;1.500;2024-03-02T11:40:34;10.50;;;4.28;;
81896;SDS011;71360;43.506;1.500;2024-03-02T11:43:00;10.02;;;4.30;;
81896;SDS011;71360;43.506;1.500;2024-03-02T11:45:26;10.40;;;3.80;;
81896;SDS011;71360;43.506;1.500;2024-03-02T11:47:57;9.60;;;3.97;;
81896;SDS011;71360;43.506;1.500;2024-03-02T11:50:42;12.23;;;3.90;;
81896;SDS011;71360;43.506;1.500;2024-03-02T11:53:13;10.52;;;3.60;;
81896;SDS011;71360;43.506;1.500;2024-03-02T11:55:40;13.23;;;3.70;;
81896;SDS011;71360;43.506;1.500;2024-03-02T11:58:06;10.47;;;3.50;;
81896;SDS011;71360;43.506;1.500;2024-03-02T12:00:32;13.20;;;3.88;;
81896;SDS011;71360;43.506;1.500;2024-03-02T12:03:08;10.10;;;5.20;;
81896;SDS011;71360;43.506;1.500;2024-03-02T12:05:35;8.35;;;3.67;;
81896;SDS011;71360;43.506;1.500;2024-03-02T12:08:02;11.93;;;4.23;;
81896;SDS011;71360;43.506;1.500;2024-03-02T12:10:29;12.50;;;3.97;;
81896;SDS011;71360;43.506;1.500;2024-03-02T12:13:02;10.55;;;3.60;;
81896;SDS011;71360;43.506;1.500;2024-03-02T12:15:36;12.82;;;3.50;;
81896;SDS011;71360;43.506;1.500;2024-03-02T12:18:02;8.85;;;3.30;;
81896;SDS011;71360;43.506;1.500;2024-03-02T12:20:29;11.47;;;4.10;;
81896;SDS011;71360;43.506;1.500;2024-03-02T12:22:56;10.18;;;3.85;;
81896;SDS011;71360;43.506;1.500;2024-03-02T12:25:23;12.65;;;4.10;;
81896;SDS011;71360;43.506;1.500;2024-03-02T12:27:51;11.15;;;4.10;;
81896;SDS011;71360;43.506;1.500;2024-03-02T12:30:19;11.10;;;3.92;;
81896;SDS011;71360;43.506;1.500;2024-03-02T12:32:46;12.40;;;4.07;;
81896;SDS011;71360;43.506;1.500;2024-03-02T12:35:14;12.20;;;4.13;;
81896;SDS011;71360;43.506;1.500;2024-03-02T12:37:49;10.68;;;4.30;;
81896;SDS011;71360;43.506;1.500;2024-03-02T12:40:16;12.77;;;4.28;;
81896;SDS011;71360;43.506;1.500;2024-03-02T12:42:46;13.35;;;4.78;;
81896;SDS011;71360;43.506;1.500;2024-03-02T12:45:15;9.90;;;3.60;;
81896;SDS011;71360;43.506;1.500;2024-03-02T12:47:41;18.25;;;7.68;;
81896;SDS011;71360;43.506;1.500;2024-03-02T12:50:08;13.15;;;4.10;;
81896;SDS011;71360;43.506;1.500;2024-03-02T12:52:35;11.23;;;5.10;;
81896;SDS011;71360;43.506;1.500;2024-03-02T12:55:02;10.20;;;4.07;;
81896;SDS011;71360;43.506;1.500;2024-03-02T12:57:30;10.70;;;3.80;;
81896;SDS011;71360;43.506;1.500;2024-03-02T12:59:59;10.35;;;4.10;;
81896;SDS011;71360;43.506;1.500;2024-03-02T13:02:29;12.43;;;4.93;;
81896;SDS011;71360;43.506;1.500;2024-03-02T13:04:55;11.40;;;4.38;;
81896;SDS011;71360;43.506;1.500;2024-03-02T13:07:26;11.48;;;3.90;;
81896;SDS011;71360;43.506;1.500;2024-03-02T13:09:52;9.47;;;4.13;;
81896;SDS011;71360;43.506;1.500;2024-03-02T13:12:20;11.20;;;3.80;;
81896;SDS011;71360;43.506;1.500;2024-03-02T13:14:51;11.80;;;3.72;;
81896;SDS011;71360;43.506;1.500;2024-03-02T13:17:20;13.75;;;4.60;;
81896;SDS011;71360;43.506;1.500;2024-03-02T13:19:56;13.20;;;4.25;;
81896;SDS011;71360;43.506;1.500;2024-03-02T13:22:25;11.90;;;4.03;;
81896;SDS011;71360;43.506;1.500;2024-03-02T13:24:51;13.57;;;4.97;;
81896;SDS011;71360;43.506;1.500;2024-03-02T13:27:19;8.80;;;4.03;;
81896;SDS011;71360;43.506;1.500;2024-03-02T13:29:48;10.15;;;3.85;;
81896;SDS011;71360;43.506;1.500;2024-03-02T13:32:14;11.35;;;3.70;;
81896;SDS011;71360;43.506;1.500;2024-03-02T13:34:40;11.17;;;3.70;;
81896;SDS011;71360;43.506;1.500;2024-03-02T13:37:06;11.23;;;3.65;;
81896;SDS011;71360;43.506;1.500;2024-03-02T13:39:32;13.50;;;4.43;;
81896;SDS011;71360;43.506;1.500;2024-03-02T13:42:00;11.70;;;3.90;;
81896;SDS011;71360;43.506;1.500;2024-03-02T13:44:31;10.32;;;4.15;;
81896;SDS011;71360;43.506;1.500;2024-03-02T13:46:56;13.40;;;4.00;;
81896;SDS011;71360;43.506;1.500;2024-03-02T13:49:23;11.98;;;3.90;;
81896;SDS011;71360;43.506;1.500;2024-03-02T13:51:49;9.93;;;4.60;;
81896;SDS011;71360;43.506;1.500;2024-03-02T13:54:15;19.07;;;7.17;;
81896;SDS011;71360;43.506;1.500;2024-03-02T13:56:40;12.88;;;4.50;;
81896;SDS011;71360;43.506;1.500;2024-03-02T13:59:06;10.73;;;4.10;;
81896;SDS011;71360;43.506;1.500;2024-03-02T14:01:33;11.15;;;3.60;;
81896;SDS011;71360;43.506;1.500;2024-03-02T14:03:58;12.53;;;4.10;;
81896;SDS011;71360;43.506;1.500;2024-03-02T14:06:24;15.40;;;4.85;;
81896;SDS011;71360;43.506;1.500;2024-03-02T14:08:52;11.97;;;4.27;;
81896;SDS011;71360;43.506;1.500;2024-03-02T14:11:18;11.07;;;3.55;;
81896;SDS011;71360;43.506;1.500;2024-03-02T14:13:44;10.88;;;4.03;;
81896;SDS011;71360;43.506;1.500;2024-03-02T14:16:14;8.85;;;3.42;;
81896;SDS011;71360;43.506;1.500;2024-03-02T14:18:40;12.10;;;3.50;;
81896;SDS011;71360;43.506;1.500;2024-03-02T14:21:07;11.05;;;3.40;;
81896;SDS011;71360;43.506;1.500;2024-03-02T14:23:33;11.48;;;3.78;;
81896;SDS011;71360;43.506;1.500;2024-03-02T14:25:58;17.13;;;5.57;;
81896;SDS011;71360;43.506;1.500;2024-03-02T14:28:24;19.50;;;10.57;;
81896;SDS011;71360;43.506;1.500;2024-03-02T14:30:50;10.00;;;4.90;;
81896;SDS011;71360;43.506;1.500;2024-03-02T14:33:15;11.88;;;4.72;;
81896;SDS011;71360;43.506;1.500;2024-03-02T14:35:41;9.90;;;4.20;;
81896;SDS011;71360;43.506;1.500;2024-03-02T14:38:07;8.67;;;4.00;;
81896;SDS011;71360;43.506;1.500;2024-03-02T14:40:33;12.05;;;3.53;;
81896;SDS011;71360;43.506;1.500;2024-03-02T14:42:58;11.30;;;3.57;;
81896;SDS011;71360;43.506;1.500;2024-03-02T14:45:24;13.20;;;5.63;;
81896;SDS011;71360;43.506;1.500;2024-03-02T14:47:49;13.37;;;5.47;;
81896;SDS011;71360;43.506;1.500;2024-03-02T14:50:17;13.40;;;4.93;;
81896;SDS011;71360;43.506;1.500;2024-03-02T14:52:43;14.57;;;5.57;;